This is the latest recevied weather packets stored in our database for station/object CW2401. If no packets are shown the sender has not sent any weather packets the latest 10 day(s).
| Time | Temp. | Humidity | Pressure | Rain* | Wind** | Luminosity | Snow |
|---|---|---|---|---|---|---|---|
| 1777152765 | 28.33° C | 47% | 1007.5 hPa | 0 mm | - | - | - |
| 1777152407 | 28.33° C | 44% | 1007.5 hPa | 0 mm | - | - | - |
| 1777152167 | 28.89° C | 45% | 1007.5 hPa | 0 mm | - | - | - |
| 1777152043 | 28.89° C | 45% | 1007.5 hPa | 0 mm | - | - | - |
| 1777151322 | 28.89° C | 43% | 1007.4 hPa | 0 mm | - | - | - |
| 1777150719 | 29.44° C | 44% | 1007.3 hPa | 0 mm | - | - | - |
| 1777150600 | 29.44° C | 44% | 1007.3 hPa | 0 mm | - | - | - |
| 1777149759 | 29.44° C | 42% | 1007.3 hPa | 0 mm | - | - | - |
| 1777149399 | 29.44° C | 42% | 1007.3 hPa | 0 mm | - | - | - |
| 1777148795 | 29.44° C | 45% | 1007.3 hPa | 0 mm | - | - | - |
| 1777146271 | 28.89° C | 42% | 1007.9 hPa | 0 mm | - | - | - |
| 1777145190 | 29.44° C | 44% | 1008 hPa | 0 mm | - | - | - |
| 1777142550 | 28.89° C | 46% | 1008.6 hPa | 0 mm | - | - | - |
| 1777141711 | 28.33° C | 49% | 1008.8 hPa | 0 mm | - | - | - |
| 1777141590 | 28.33° C | 47% | 1008.8 hPa | 0 mm | - | - | - |
| 1777141230 | 28.33° C | 48% | 1008.8 hPa | 0 mm | - | - | - |
| 1777140271 | 28.89° C | 48% | 1008.9 hPa | 0 mm | - | - | - |
| 1777138105 | 28.33° C | 48% | 1009.2 hPa | 0 mm | - | - | - |
| 1777135570 | 27.78° C | 50% | 1009.7 hPa | 0 mm | - | - | - |
| 1777134845 | 27.22° C | 52% | 1009.9 hPa | 0 mm | - | - | - |
| 1777134725 | 27.22° C | 52% | 1010 hPa | 0 mm | - | - | - |
| 1777134243 | 27.22° C | 53% | 1010 hPa | 0 mm | - | - | - |
| 1777133879 | 26.67° C | 54% | 1010.1 hPa | 0 mm | - | - | - |
| 1777133755 | 26.67° C | 53% | 1010.1 hPa | 0 mm | - | - | - |
| 1777132790 | 26.67° C | 53% | 1010.3 hPa | 0 mm | - | - | - |
* Rain latest hour (hover to see other rain measurements)
** Current wind speed in m/s (hover to see current wind gust speed)